< < Back
Terminal Aerodrome Forecast


Current Version              Previous Versions:   1  2  3  4  5  6  7  8  9  

Terminal Aerodrome Forecast

117
FTUS42 KCAE 061131
TAFAGS
TAF
KAGS 061131Z 0612/0712 07005KT P6SM BKN250
     FM061800 05010KT P6SM SCT070 BKN150
     FM070000 02008KT P6SM VCSH OVC035=



Latest METAR

161
SAUS70 KWBC 061600 RRX
MTRAGS
METAR KAGS 061953Z 14005KT 10SM OVC050 09/M04 A3027 RMK AO2 RAB20E35
SLP249 P0000 T00941044


USA.gov is the U.S. government's official web portal to all federal, state and local government web resources and services.